createdAt,value
2023-04-15T00:02:18.532Z,1.06
2023-04-15T00:04:51.999Z,1.06
2023-04-15T00:07:25.450Z,0.98
2023-04-15T00:09:59.272Z,0.95
2023-04-15T00:12:33.856Z,0.91
2023-04-15T00:15:10.436Z,0.89
2023-04-15T00:17:44.132Z,0.86
2023-04-15T00:20:17.751Z,0.84
2023-04-15T00:22:51.263Z,0.78
2023-04-15T00:25:24.738Z,0.77
2023-04-15T00:27:58.514Z,0.72
2023-04-15T00:30:32.495Z,0.69
2023-04-15T00:33:06.665Z,0.64
2023-04-15T00:35:40.652Z,0.61
2023-04-15T00:38:14.772Z,0.60
2023-04-15T00:40:48.745Z,0.56
2023-04-15T00:43:22.816Z,0.53
2023-04-15T00:45:58.007Z,0.47
2023-04-15T00:48:31.774Z,0.47
2023-04-15T00:51:05.107Z,0.44
2023-04-15T00:53:38.609Z,0.40
2023-04-15T00:56:12.154Z,0.36
2023-04-15T00:58:45.615Z,0.33
2023-04-15T01:01:20.345Z,0.33
2023-04-15T01:03:55.151Z,0.27
2023-04-15T01:06:29.289Z,0.23
2023-04-15T01:09:03.637Z,0.20
2023-04-15T01:11:37.945Z,0.21
2023-04-15T01:14:12.961Z,0.18
2023-04-15T01:16:48.178Z,0.17
2023-04-15T01:19:22.841Z,0.17
2023-04-15T01:21:56.478Z,0.11
2023-04-15T01:24:31.811Z,0.08
2023-04-15T01:27:05.992Z,0.05
2023-04-15T01:29:40.711Z,0.02
2023-04-15T01:32:14.033Z,-0.01
2023-04-15T01:35:05.807Z,-0.06
2023-04-15T01:37:53.063Z,-0.11
2023-04-15T01:40:25.839Z,-0.15
2023-04-15T01:43:01.442Z,-0.17
2023-04-15T01:45:36.511Z,-0.20
2023-04-15T01:48:12.552Z,-0.23
2023-04-15T01:50:47.530Z,-0.26
2023-04-15T01:53:22.437Z,-0.28
2023-04-15T01:55:57.603Z,-0.31
2023-04-15T01:58:32.669Z,-0.33
2023-04-15T02:01:07.763Z,-0.36
2023-04-15T02:03:42.992Z,-0.40
2023-04-15T02:06:18.561Z,-0.41
2023-04-15T02:08:53.490Z,-0.43
2023-04-15T02:11:28.440Z,-0.42
2023-04-15T02:14:04.284Z,-0.43
2023-04-15T02:16:39.158Z,-0.44
2023-04-15T02:19:15.605Z,-0.46
2023-04-15T02:21:50.464Z,-0.50
2023-04-15T02:24:25.463Z,-0.51
2023-04-15T02:27:01.322Z,-0.52
2023-04-15T02:29:36.620Z,-0.52
2023-04-15T02:32:12.263Z,-0.55
2023-04-15T02:34:47.080Z,-0.54
2023-04-15T02:37:22.399Z,-0.52
2023-04-15T02:39:57.463Z,-0.53
2023-04-15T02:42:32.747Z,-0.52
2023-04-15T02:45:09.859Z,-0.52
2023-04-15T02:47:46.134Z,-0.51
2023-04-15T02:50:21.245Z,-0.51
2023-04-15T02:52:56.213Z,-0.50
2023-04-15T02:55:31.142Z,-0.48
2023-04-15T02:58:06.040Z,-0.45
2023-04-15T03:00:40.972Z,-0.41
2023-04-15T03:03:16.441Z,-0.40
2023-04-15T03:05:51.719Z,-0.37
2023-04-15T03:08:27.169Z,-0.34
2023-04-15T03:11:03.360Z,-0.31
2023-04-15T03:13:39.776Z,-0.27
2023-04-15T03:16:16.468Z,-0.23
2023-04-15T03:18:51.726Z,-0.20
2023-04-15T03:21:27.952Z,-0.15
2023-04-15T03:24:03.175Z,-0.10
2023-04-15T03:26:37.813Z,-0.07
2023-04-15T03:29:20.353Z,-0.05
2023-04-15T03:31:56.403Z,0.01
2023-04-15T03:34:31.627Z,0.06
2023-04-15T03:37:06.983Z,0.11
2023-04-15T03:39:41.920Z,0.14
2023-04-15T03:42:16.705Z,0.19
2023-04-15T03:44:51.701Z,0.26
2023-04-15T03:47:28.790Z,0.31
2023-04-15T03:50:03.500Z,0.36
2023-04-15T03:52:38.127Z,0.43
2023-04-15T03:55:13.510Z,0.48
2023-04-15T03:57:48.354Z,0.55
2023-04-15T04:00:23.714Z,0.64
2023-04-15T04:02:59.481Z,0.73
2023-04-15T04:05:36.002Z,0.76
2023-04-15T04:08:13.162Z,0.85
2023-04-15T04:10:49.069Z,0.93
2023-04-15T04:13:24.089Z,0.99
2023-04-15T04:15:58.995Z,1.06
2023-04-15T04:18:37.504Z,1.14
2023-04-15T04:21:12.848Z,1.25
2023-04-15T04:23:47.601Z,1.32
2023-04-15T04:26:23.099Z,1.46
2023-04-15T04:29:01.301Z,1.61
2023-04-15T04:31:36.726Z,1.61
2023-04-15T04:34:21.352Z,1.62
2023-04-15T04:36:57.263Z,1.72
2023-04-15T04:39:32.966Z,1.82
2023-04-15T04:42:07.752Z,1.96
2023-04-15T04:44:42.790Z,2.05
2023-04-15T04:47:35.243Z,2.04
2023-04-15T04:50:29.294Z,1.93
2023-04-15T04:53:05.652Z,1.85
2023-04-15T04:55:40.924Z,1.71
2023-04-15T04:58:16.047Z,1.61
2023-04-15T05:00:51.348Z,1.57
2023-04-15T05:03:26.505Z,1.61
2023-04-15T05:06:03.495Z,1.64
2023-04-15T05:08:40.405Z,1.71
2023-04-15T05:11:15.665Z,1.67
2023-04-15T05:13:51.100Z,1.76
2023-04-15T05:16:26.215Z,2.01
2023-04-15T05:19:01.644Z,2.18
2023-04-15T05:21:38.285Z,2.24
2023-04-15T05:24:12.953Z,2.31
2023-04-15T05:26:48.209Z,2.41
2023-04-15T05:29:23.160Z,2.29
2023-04-15T05:31:58.784Z,2.38
2023-04-15T05:34:33.843Z,2.50
2023-04-15T05:37:08.655Z,2.67
2023-04-15T05:39:44.694Z,2.75
2023-04-15T05:42:20.044Z,2.55
2023-04-15T05:44:55.410Z,2.42
2023-04-15T05:47:30.486Z,2.57
2023-04-15T05:50:06.795Z,2.51
2023-04-15T05:52:42.432Z,2.51
2023-04-15T05:55:17.440Z,2.67
2023-04-15T05:57:52.391Z,2.97
2023-04-15T06:00:27.527Z,3.07
2023-04-15T06:03:04.439Z,3.23
2023-04-15T06:05:53.874Z,3.27
2023-04-15T06:08:33.112Z,3.42
2023-04-15T06:11:10.129Z,3.43
2023-04-15T06:13:48.233Z,3.27
2023-04-15T06:16:24.145Z,3.20
2023-04-15T06:18:58.908Z,3.25
2023-04-15T06:21:33.899Z,3.42
2023-04-15T06:24:09.318Z,3.66
2023-04-15T06:26:44.448Z,3.87
2023-04-15T06:29:19.484Z,4.07
2023-04-15T06:31:54.664Z,4.29
2023-04-15T06:34:29.682Z,4.63
2023-04-15T06:37:06.231Z,4.84
2023-04-15T06:39:41.678Z,4.76
2023-04-15T06:42:16.851Z,4.75
2023-04-15T06:47:33.638Z,6.17
2023-04-15T06:50:10.285Z,6.56
2023-04-15T06:52:45.455Z,6.78
2023-04-15T06:55:20.187Z,7.31
2023-04-15T06:57:54.594Z,8.19
2023-04-15T07:00:29.618Z,9.05
2023-04-15T07:03:04.993Z,9.81
2023-04-15T07:05:42.394Z,10.55
2023-04-15T07:08:23.320Z,11.07
2023-04-15T07:11:00.803Z,11.77
2023-04-15T07:13:36.549Z,12.52
2023-04-15T07:16:27.181Z,13.04
2023-04-15T07:19:04.650Z,13.46
2023-04-15T07:24:23.519Z,14.49
2023-04-15T07:27:00.850Z,14.53
2023-04-15T07:29:35.551Z,15.29
2023-04-15T07:32:11.714Z,15.77
2023-04-15T07:34:47.215Z,15.66
2023-04-15T07:37:21.928Z,15.57
2023-04-15T07:39:56.921Z,16.02
2023-04-15T07:42:31.647Z,17.03
2023-04-15T07:45:07.663Z,17.83
2023-04-15T07:47:42.816Z,18.41
2023-04-15T07:50:19.998Z,19.20
2023-04-15T07:52:54.846Z,19.69
2023-04-15T07:55:30.788Z,19.92
2023-04-15T07:58:05.655Z,20.27
2023-04-15T08:00:40.439Z,20.67
2023-04-15T08:03:15.893Z,20.82
2023-04-15T08:05:51.073Z,21.68
2023-04-15T08:08:26.448Z,22.24
2023-04-15T08:11:02.210Z,22.22
2023-04-15T08:13:37.279Z,22.00
2023-04-15T08:16:21.083Z,21.50
2023-04-15T08:22:17.724Z,20.03
2023-04-15T08:25:16.177Z,21.14
2023-04-15T08:27:54.577Z,21.65
2023-04-15T08:30:30.402Z,20.96
2023-04-15T08:33:05.541Z,20.90
2023-04-15T08:35:40.580Z,21.34
2023-04-15T08:38:15.692Z,22.70
2023-04-15T08:40:51.959Z,23.75
2023-04-15T08:43:30.470Z,24.95
2023-04-15T08:46:05.878Z,24.85
2023-04-15T08:48:41.964Z,24.03
2023-04-15T08:51:17.460Z,23.72
2023-04-15T08:53:53.113Z,22.67
2023-04-15T08:56:29.694Z,22.39
2023-04-15T08:59:05.765Z,22.84
2023-04-15T09:01:41.686Z,22.99
2023-04-15T09:04:18.212Z,22.37
2023-04-15T09:06:53.416Z,22.50
2023-04-15T09:09:29.275Z,22.87
2023-04-15T09:12:05.297Z,22.59
2023-04-15T09:14:41.744Z,21.86
2023-04-15T09:17:18.120Z,21.35
2023-04-15T09:20:09.462Z,21.17
2023-04-15T09:22:45.622Z,21.47
2023-04-15T09:25:34.960Z,21.84
2023-04-15T09:28:10.035Z,21.61
2023-04-15T09:30:49.746Z,21.13
2023-04-15T09:33:25.115Z,19.84
2023-04-15T09:36:04.980Z,19.17
2023-04-15T09:38:50.210Z,18.96
2023-04-15T09:41:25.843Z,18.28
2023-04-15T09:44:26.382Z,17.75
2023-04-15T09:47:01.477Z,17.60
2023-04-15T09:49:36.253Z,17.58
2023-04-15T09:52:10.645Z,17.48
2023-04-15T09:54:46.512Z,16.88
2023-04-15T09:57:21.918Z,16.30
2023-04-15T09:59:56.199Z,16.50
2023-04-15T10:02:32.161Z,16.50
2023-04-15T10:05:08.637Z,16.49
2023-04-15T10:07:43.709Z,17.05
2023-04-15T10:10:18.305Z,17.74
2023-04-15T10:12:53.826Z,17.93
2023-04-15T10:15:30.124Z,17.48
2023-04-15T10:18:07.345Z,16.99
2023-04-15T10:20:42.816Z,16.74
2023-04-15T10:23:18.944Z,17.13
2023-04-15T10:25:55.465Z,17.25
2023-04-15T10:28:30.299Z,16.92
2023-04-15T10:31:06.229Z,17.64
2023-04-15T10:33:41.044Z,17.96
2023-04-15T10:36:17.004Z,18.12
2023-04-15T10:38:51.308Z,18.42
2023-04-15T10:41:28.177Z,18.63
2023-04-15T10:44:05.346Z,19.17
2023-04-15T10:46:42.998Z,19.69
2023-04-15T10:49:19.828Z,20.34
2023-04-15T10:51:57.781Z,20.76
2023-04-15T10:57:24.422Z,17.60
2023-04-15T11:00:13.149Z,17.60
2023-04-15T11:02:49.257Z,17.40
2023-04-15T11:05:24.696Z,16.69
2023-04-15T11:07:59.587Z,16.75
2023-04-15T11:10:57.719Z,17.43
2023-04-15T11:13:34.425Z,18.06
2023-04-15T11:16:09.461Z,18.53
2023-04-15T11:18:44.212Z,17.96
2023-04-15T11:21:18.765Z,17.68
2023-04-15T11:23:53.438Z,17.59
2023-04-15T11:26:29.724Z,17.81
2023-04-15T11:29:05.604Z,18.05
2023-04-15T11:31:40.724Z,17.87
2023-04-15T11:34:16.664Z,18.43
2023-04-15T11:36:51.991Z,18.67
2023-04-15T11:39:26.520Z,18.92
2023-04-15T11:44:42.893Z,19.97
2023-04-15T11:47:26.485Z,19.52
2023-04-15T11:50:10.751Z,18.88
2023-04-15T11:52:45.683Z,18.11
2023-04-15T11:55:19.837Z,17.64
2023-04-15T11:58:09.716Z,17.47
2023-04-15T12:00:45.038Z,17.38
2023-04-15T12:03:21.548Z,17.11
2023-04-15T12:06:10.608Z,17.42
2023-04-15T12:09:07.529Z,17.60
2023-04-15T12:11:43.324Z,17.84
2023-04-15T12:14:20.638Z,17.87
2023-04-15T12:16:58.460Z,17.21
2023-04-15T12:19:36.147Z,17.47
2023-04-15T12:22:10.996Z,18.14
2023-04-15T12:24:47.074Z,18.90
2023-04-15T12:27:21.311Z,19.97
2023-04-15T12:29:57.906Z,20.82
2023-04-15T12:32:31.830Z,20.79
2023-04-15T12:35:05.349Z,20.54
2023-04-15T12:37:38.636Z,20.13
2023-04-15T12:40:13.495Z,18.73
2023-04-15T12:42:47.625Z,18.14
2023-04-15T12:45:21.532Z,18.27
2023-04-15T12:47:55.047Z,17.93
2023-04-15T12:50:29.136Z,17.65
2023-04-15T12:53:02.861Z,17.83
2023-04-15T12:55:36.496Z,17.37
2023-04-15T12:58:11.816Z,17.04
2023-04-15T13:00:45.576Z,16.92
2023-04-15T13:03:19.337Z,16.76
2023-04-15T13:08:42.556Z,17.09
2023-04-15T13:11:14.570Z,16.44
2023-04-15T13:13:48.545Z,17.47
2023-04-15T13:16:22.290Z,18.41
2023-04-15T13:18:55.743Z,18.90
2023-04-15T13:21:29.366Z,19.02
2023-04-15T13:24:03.505Z,19.17
2023-04-15T13:26:38.133Z,19.60
2023-04-15T13:29:12.745Z,19.64
2023-04-15T13:31:46.255Z,19.71
2023-04-15T13:34:19.938Z,19.71
2023-04-15T13:36:53.523Z,19.34
2023-04-15T13:39:27.473Z,18.90
2023-04-15T13:42:01.219Z,19.01
2023-04-15T13:44:34.784Z,18.41
2023-04-15T13:47:08.685Z,17.43
2023-04-15T13:49:44.126Z,17.24
2023-04-15T13:52:17.652Z,17.54
2023-04-15T13:55:07.692Z,18.08
2023-04-15T13:57:26.781Z,18.28
2023-04-15T14:00:00.723Z,18.63
2023-04-15T14:02:35.103Z,19.05
2023-04-15T14:05:09.859Z,18.97
2023-04-15T14:07:43.324Z,18.38
2023-04-15T14:10:16.848Z,18.32
2023-04-15T14:12:51.703Z,18.81
2023-04-15T14:15:25.304Z,18.91
2023-04-15T14:17:58.997Z,18.74
2023-04-15T14:20:32.813Z,18.79
2023-04-15T14:23:06.599Z,18.98
2023-04-15T14:25:40.189Z,19.17
2023-04-15T14:28:13.495Z,18.25
2023-04-15T14:30:47.188Z,17.87
2023-04-15T14:33:21.247Z,17.19
2023-04-15T14:35:55.486Z,16.36
2023-04-15T14:38:29.081Z,15.66
2023-04-15T14:41:03.093Z,15.47
2023-04-15T14:43:37.075Z,15.15
2023-04-15T14:46:10.788Z,14.58
2023-04-15T14:48:44.657Z,14.32
2023-04-15T14:51:17.922Z,14.18
2023-04-15T14:53:51.168Z,14.04
2023-04-15T14:56:24.664Z,13.95
2023-04-15T14:58:58.190Z,13.78
2023-04-15T15:01:31.854Z,13.63
2023-04-15T15:04:09.613Z,13.70
2023-04-15T15:06:46.730Z,13.54
2023-04-15T15:09:22.307Z,13.37
2023-04-15T15:11:57.176Z,13.42
2023-04-15T15:14:31.206Z,13.48
2023-04-15T15:17:04.929Z,13.57
2023-04-15T15:19:38.521Z,13.54
2023-04-15T15:22:12.736Z,13.44
2023-04-15T15:24:46.068Z,13.41
2023-04-15T15:27:19.879Z,13.58
2023-04-15T15:29:53.518Z,13.39
2023-04-15T15:32:27.214Z,13.19
2023-04-15T15:35:00.591Z,12.85
2023-04-15T15:37:36.420Z,12.89
2023-04-15T15:40:12.264Z,12.79
2023-04-15T15:42:47.467Z,12.49
2023-04-15T15:45:21.361Z,12.25
2023-04-15T15:47:56.573Z,12.08
2023-04-15T15:50:30.398Z,11.84
2023-04-15T15:53:04.116Z,11.83
2023-04-15T15:55:37.421Z,11.85
2023-04-15T15:58:13.612Z,11.60
2023-04-15T16:00:47.264Z,11.32
2023-04-15T16:03:25.759Z,10.95
2023-04-15T16:06:00.914Z,10.63
2023-04-15T16:08:34.527Z,10.25
2023-04-15T16:11:08.075Z,9.99
2023-04-15T16:13:41.632Z,9.75
2023-04-15T16:16:15.294Z,9.55
2023-04-15T16:18:49.040Z,9.38
2023-04-15T16:21:24.633Z,9.32
2023-04-15T16:23:58.574Z,9.23
2023-04-15T16:26:32.281Z,9.11
2023-04-15T16:29:09.150Z,9.05
2023-04-15T16:31:42.952Z,8.95
2023-04-15T16:34:17.637Z,8.84
2023-04-15T16:36:51.361Z,8.77
2023-04-15T16:39:26.599Z,8.71
2023-04-15T16:42:00.405Z,8.62
2023-04-15T16:44:34.581Z,8.58
2023-04-15T16:47:09.973Z,8.54
2023-04-15T16:49:43.830Z,8.52
2023-04-15T16:52:19.753Z,8.48
2023-04-15T16:54:53.242Z,8.51
2023-04-15T16:57:29.633Z,8.56
2023-04-15T17:00:02.420Z,8.54
2023-04-15T17:02:36.170Z,8.48
2023-04-15T17:05:11.462Z,8.40
2023-04-15T17:07:46.285Z,8.32
2023-04-15T17:10:20.200Z,8.29
2023-04-15T17:12:53.527Z,8.35
2023-04-15T17:15:34.065Z,8.44
2023-04-15T17:18:14.390Z,8.48
2023-04-15T17:21:17.868Z,8.40
2023-04-15T17:24:04.246Z,8.35
2023-04-15T17:26:44.444Z,8.35
2023-04-15T17:29:21.956Z,8.36
2023-04-15T17:31:57.684Z,8.36
2023-04-15T17:34:51.374Z,8.36
2023-04-15T17:37:29.749Z,8.37
2023-04-15T17:40:08.472Z,8.34
2023-04-15T17:45:36.947Z,8.30
2023-04-15T17:50:57.641Z,8.16
2023-04-15T17:53:36.206Z,7.98
2023-04-15T17:56:18.103Z,7.91
2023-04-15T17:58:56.348Z,7.85
2023-04-15T18:01:34.192Z,7.82
2023-04-15T18:04:24.854Z,7.77
2023-04-15T18:07:07.478Z,7.72
2023-04-15T18:10:07.861Z,7.66
2023-04-15T18:12:49.922Z,7.60
2023-04-15T18:15:36.796Z,7.53
2023-04-15T18:18:14.677Z,7.47
2023-04-15T18:20:55.378Z,7.41
2023-04-15T18:23:33.617Z,7.37
2023-04-15T18:26:05.892Z,7.35
2023-04-15T18:28:41.956Z,7.30
2023-04-15T18:31:15.804Z,7.23
2023-04-15T18:33:56.868Z,7.22
2023-04-15T18:36:58.636Z,7.16
2023-04-15T18:39:39.253Z,7.03
2023-04-15T18:42:20.516Z,6.97
2023-04-15T18:45:11.510Z,6.91
2023-04-15T18:47:57.168Z,6.91
2023-04-15T18:50:30.643Z,6.92
2023-04-15T18:53:04.104Z,6.86
2023-04-15T18:55:37.931Z,6.83
2023-04-15T18:58:11.599Z,6.83
2023-04-15T19:00:45.496Z,6.75
2023-04-15T19:03:18.762Z,6.70
2023-04-15T19:05:52.395Z,6.65
2023-04-15T19:08:25.842Z,6.68
2023-04-15T19:10:59.590Z,6.68
2023-04-15T19:13:33.111Z,6.67
2023-04-15T19:16:07.524Z,6.61
2023-04-15T19:18:40.955Z,6.61
2023-04-15T19:21:16.253Z,6.61
2023-04-15T19:23:50.253Z,6.63
2023-04-15T19:26:23.946Z,6.59
2023-04-15T19:28:59.003Z,6.55
2023-04-15T19:31:32.604Z,6.44
2023-04-15T19:34:09.272Z,6.32
2023-04-15T19:36:42.706Z,6.26
2023-04-15T19:39:16.338Z,6.23
2023-04-15T19:41:49.925Z,6.20
2023-04-15T19:44:23.614Z,6.15
2023-04-15T19:46:57.372Z,6.12
2023-04-15T19:49:31.514Z,6.08
2023-04-15T19:52:05.487Z,6.07
2023-04-15T19:54:38.816Z,6.06
2023-04-15T19:57:12.520Z,6.01
2023-04-15T19:59:46.298Z,5.96
2023-04-15T20:02:19.946Z,5.96
2023-04-15T20:04:53.565Z,5.96
2023-04-15T20:07:27.506Z,5.94
2023-04-15T20:10:01.442Z,5.90
2023-04-15T20:12:50.465Z,5.87
2023-04-15T20:15:12.714Z,5.83
2023-04-15T20:17:46.288Z,5.82
2023-04-15T20:20:19.911Z,5.78
2023-04-15T20:22:55.897Z,5.77
2023-04-15T20:25:29.169Z,5.77
2023-04-15T20:28:03.172Z,5.74
2023-04-15T20:30:37.465Z,5.76
2023-04-15T20:33:11.051Z,5.71
2023-04-15T20:35:44.614Z,5.71
2023-04-15T20:38:18.170Z,5.68
2023-04-15T20:40:51.921Z,5.67
2023-04-15T20:43:26.248Z,5.66
2023-04-15T20:46:09.939Z,5.60
2023-04-15T20:48:35.478Z,5.59
2023-04-15T20:51:09.083Z,5.52
2023-04-15T20:53:42.759Z,5.49
2023-04-15T20:56:16.589Z,5.44
2023-04-15T20:58:50.118Z,5.42
2023-04-15T21:01:23.801Z,5.42
2023-04-15T21:03:57.902Z,5.38
2023-04-15T21:06:34.264Z,5.34
2023-04-15T21:09:08.801Z,5.33
2023-04-15T21:11:57.350Z,5.29
2023-04-15T21:14:18.343Z,5.24
2023-04-15T21:16:53.406Z,5.20
2023-04-15T21:19:27.380Z,5.12
2023-04-15T21:22:01.469Z,5.08
2023-04-15T21:24:35.212Z,5.05
2023-04-15T21:27:08.569Z,5.00
2023-04-15T21:32:26.746Z,5.05
2023-04-15T21:35:01.940Z,4.91
2023-04-15T21:37:35.441Z,4.90
2023-04-15T21:40:11.757Z,4.91
2023-04-15T21:42:45.753Z,4.89
2023-04-15T21:45:20.035Z,4.88
2023-04-15T21:48:00.438Z,4.86
2023-04-15T21:50:28.637Z,4.86
2023-04-15T21:53:02.556Z,4.81
2023-04-15T21:55:36.195Z,4.79
2023-04-15T21:58:09.697Z,4.75
2023-04-15T22:00:43.233Z,4.71
2023-04-15T22:03:17.321Z,4.68
2023-04-15T22:05:51.078Z,4.67
2023-04-15T22:08:26.903Z,4.64
2023-04-15T22:11:00.253Z,4.63
2023-04-15T22:13:33.758Z,4.60
2023-04-15T22:16:07.421Z,4.59
2023-04-15T22:18:41.365Z,4.55
2023-04-15T22:21:15.412Z,4.56
2023-04-15T22:23:50.601Z,4.54
2023-04-15T22:26:24.006Z,4.54
2023-04-15T22:28:57.449Z,4.48
2023-04-15T22:34:17.823Z,4.53
2023-04-15T22:36:51.846Z,4.39
2023-04-15T22:39:25.663Z,4.36
2023-04-15T22:41:59.448Z,4.35
2023-04-15T22:44:33.102Z,4.33
2023-04-15T22:47:06.770Z,4.28
2023-04-15T22:49:40.803Z,4.27
2023-04-15T22:52:29.396Z,4.25
2023-04-15T22:54:53.459Z,4.23
2023-04-15T22:57:27.993Z,4.21
2023-04-15T23:00:01.260Z,4.20
2023-04-15T23:02:36.708Z,4.20
2023-04-15T23:05:12.668Z,4.22
2023-04-15T23:07:46.633Z,4.21
2023-04-15T23:10:20.557Z,4.20
2023-04-15T23:12:54.371Z,4.22
2023-04-15T23:15:27.930Z,4.20
2023-04-15T23:18:02.329Z,4.19
2023-04-15T23:20:36.239Z,4.18
2023-04-15T23:23:09.751Z,4.16
2023-04-15T23:25:43.520Z,4.15
2023-04-15T23:28:17.217Z,4.14
2023-04-15T23:30:51.123Z,4.11
2023-04-15T23:33:24.811Z,4.09
2023-04-15T23:35:58.638Z,4.08
2023-04-15T23:38:32.332Z,4.04
2023-04-15T23:41:07.429Z,4.02
2023-04-15T23:43:41.099Z,3.96
2023-04-15T23:46:15.040Z,3.94
2023-04-15T23:48:49.263Z,3.93
2023-04-15T23:51:22.756Z,3.91
2023-04-15T23:53:56.417Z,3.87
2023-04-15T23:56:29.996Z,3.86
2023-04-15T23:59:03.270Z,3.80
